Detall de PIREP

Printer-friendly versionPDF version

[2011/03/15 08:23:00]
Flight IATA:CT2111
Pilot Number:041
Company ICAO:CAT
Aircraft Type:F28/A
PAX:77
Departing Airport: LEST
Destination Airport: LEVC
Alternate Airport:LEAL
Online: VATSIM
Route:FORNO A33 ZMR A33 DISKO A33 INDEG A33 MAGIN A33 HORTA A33 CJN A33 PRADO A33 CENTA
Flight Level:F240
No Slew and time accel
No pause
Crash detect
Detect pilot in Cockpit between each 30 and 45 minutes
08:23 Zero fuel Weight: 56785 Lbs, Fuel Weight: 13681 Lbs
08:23 VATSIM:LEST 150800Z 21005KT 160V240 9000 -RA VCFG FEW002 SCT010 BKN020 07/07 Q1001 NOSIG
08:23 VATSIM:LEVC 150800Z 25005KT 9999 FEW020 BKN060 13/11 Q1001 NOSIG
08:23 VOICE CATALONIAN
08:24 Parking Brakes off
08:31 Take-off
08:31 Take off Weight: 70037 Lbs
08:31 Wind: 209º @ 005 Knots Heading: 166º
08:31 POS N42º 53´ 17´´ W008º 24´ 44´´
08:31 Flaps:2 at 183 Knots
08:31 Gear Up: 198 Knots
08:31 Gear Down: 198 Knots
08:31 Gear Up: 199 Knots
08:31 Flaps:1 at 201 Knots
08:31 Flaps:0 at 203 Knots
08:42 TOC
08:42 Fuel Weight: 11627 Lb
08:46 Wind:198º@004 Knots Heading: 124º Ground Speed: 410 Knots Altitude 23635 ft
09:01 Wind:161º@003 Knots Heading: 116º Ground Speed: 418 Knots Altitude 23631 ft
09:16 Wind:250º@012 Knots Heading: 118º Ground Speed: 428 Knots Altitude 23661 ft
09:18 TOD
09:18 Fuel Weight: 8661 Lb
09:31 Wind:249º@007 Knots Heading: 142º Ground Speed: 271 Knots Altitude 5685 ft
09:37 Flaps:1 at 228 Knots
09:39 Flaps:2 at 208 Knots
09:45 Flaps:3 at 187 Knots
09:45 Gear Down: 174 Knots
09:46 Wind:259º@007 Knots Heading: 294º Ground Speed: 156 Knots Altitude 2319 ft
09:46 Flaps:4 at 149 Knots
09:48 TouchDown:Rate -182 ft/min Speed: 124 Knots
09:49 VATSIM:LEVC 150930Z 24009KT 9999 FEW020 SCT060 16/11 Q1002 NOSIG
09:49 Land
09:49 Wind:259º@007 Knots
09:49 Heading: 297º
09:49 Flight Duration: 01:18
09:49 Landing Weight: 63739 Lbs
09:49 POS N39º 29´ 21´´ W000º 28´ 53´´
09:51 Parking brakes on
09:51 Block to Block Duration: 01:27
09:51 Final Fuel: 6849 Lbls
09:51 Spent Fuel: 6832 Lbls
09:51 Flight Length: 441 NM
09:51 TOD Land Length: 134 NM

Exportar CSV

Powered by Drupal - Modified by Danger4k